createdAt,value
2018-05-12T00:00:13.595Z,90.90
2018-05-12T00:02:14.546Z,92.00
2018-05-12T00:04:15.509Z,91.90
2018-05-12T00:06:16.503Z,92.60
2018-05-12T00:08:18.234Z,93.40
2018-05-12T00:10:19.203Z,93.30
2018-05-12T00:12:20.899Z,93.40
2018-05-12T00:14:21.835Z,93.40
2018-05-12T00:16:22.793Z,93.70
2018-05-12T00:18:23.749Z,94.10
2018-05-12T00:20:25.475Z,93.20
2018-05-12T00:22:26.429Z,93.20
2018-05-12T00:24:27.375Z,92.70
2018-05-12T00:26:28.337Z,92.70
2018-05-12T00:28:29.303Z,92.70
2018-05-12T00:30:30.274Z,93.40
2018-05-12T00:32:31.366Z,93.10
2018-05-12T00:34:32.320Z,92.90
2018-05-12T00:36:33.267Z,94.00
2018-05-12T00:38:34.247Z,94.10
2018-05-12T00:40:35.232Z,93.50
2018-05-12T00:42:36.930Z,94.30
2018-05-12T00:44:37.881Z,94.30
2018-05-12T00:46:38.849Z,94.40
2018-05-12T00:48:39.777Z,94.50
2018-05-12T00:50:40.733Z,94.30
2018-05-12T00:52:41.723Z,94.10
2018-05-12T00:54:43.409Z,94.10
2018-05-12T00:56:44.465Z,94.10
2018-05-12T00:58:45.419Z,94.50
2018-05-12T01:00:46.447Z,94.80
2018-05-12T01:02:47.415Z,94.50
2018-05-12T01:04:48.378Z,95.20
2018-05-12T01:06:49.330Z,95.40
2018-05-12T01:08:50.280Z,95.50
2018-05-12T01:10:51.215Z,95.20
2018-05-12T01:12:52.153Z,95.50
2018-05-12T01:14:53.126Z,95.70
2018-05-12T01:16:54.083Z,95.70
2018-05-12T01:18:55.063Z,96.20
2018-05-12T01:20:56.039Z,95.50
2018-05-12T01:22:57.013Z,95.70
2018-05-12T01:24:57.962Z,95.70
2018-05-12T01:26:58.906Z,95.40
2018-05-12T01:28:59.840Z,94.80
2018-05-12T01:31:00.823Z,95.10
2018-05-12T01:33:02.527Z,95.60
2018-05-12T01:35:03.466Z,95.60
2018-05-12T01:37:04.455Z,95.10
2018-05-12T01:39:05.390Z,95.20
2018-05-12T01:41:06.341Z,94.90
2018-05-12T01:43:07.308Z,95.40
2018-05-12T01:45:09.035Z,94.00
2018-05-12T01:47:09.993Z,94.00
2018-05-12T01:49:10.959Z,94.40
2018-05-12T01:51:12.680Z,95.50
2018-05-12T01:53:13.642Z,95.50
2018-05-12T01:55:14.645Z,95.30
2018-05-12T01:57:15.674Z,94.60
2018-05-12T01:59:16.585Z,94.80
2018-05-12T02:01:17.541Z,94.80
2018-05-12T02:03:18.487Z,94.90
2018-05-12T02:05:19.439Z,95.60
2018-05-12T02:07:20.372Z,95.20
2018-05-12T02:09:21.359Z,95.10
2018-05-12T02:11:22.326Z,95.60
2018-05-12T02:13:23.269Z,95.40
2018-05-12T02:15:24.216Z,95.10
2018-05-12T02:17:25.189Z,96.10
2018-05-12T02:19:26.156Z,96.10
2018-05-12T02:21:27.102Z,95.80
2018-05-12T02:23:28.038Z,95.90
2018-05-12T02:25:28.991Z,95.90
2018-05-12T02:27:29.954Z,95.60
2018-05-12T02:29:31.661Z,96.10
2018-05-12T02:31:32.598Z,96.10
2018-05-12T02:33:33.555Z,96.00
2018-05-12T02:35:34.551Z,96.30
2018-05-12T02:37:36.239Z,96.70
2018-05-12T02:39:37.229Z,96.60
2018-05-12T02:41:38.145Z,96.20
2018-05-12T02:43:39.106Z,96.10
2018-05-12T02:45:40.067Z,96.10
2018-05-12T02:47:41.027Z,96.00
2018-05-12T02:49:41.958Z,96.80
2018-05-12T02:51:42.908Z,96.90
2018-05-12T02:53:43.867Z,96.80
2018-05-12T02:55:44.839Z,96.50
2018-05-12T02:57:45.782Z,96.30
2018-05-12T02:59:46.751Z,96.40
2018-05-12T03:01:47.699Z,96.40
2018-05-12T03:03:48.634Z,96.50
2018-05-12T03:05:49.582Z,96.60
2018-05-12T03:07:50.548Z,96.70
2018-05-12T03:09:51.501Z,96.50
2018-05-12T03:11:52.475Z,96.70
2018-05-12T03:13:53.418Z,97.00
2018-05-12T03:15:54.362Z,97.10
2018-05-12T03:17:55.319Z,96.80
2018-05-12T03:19:57.026Z,96.70
2018-05-12T03:21:57.962Z,96.70
2018-05-12T03:23:58.910Z,97.00
2018-05-12T03:25:59.899Z,97.40
2018-05-12T03:28:00.832Z,96.90
2018-05-12T03:30:01.792Z,96.90
2018-05-12T03:32:02.753Z,97.10
2018-05-12T03:34:03.712Z,97.10
2018-05-12T03:36:05.424Z,96.80
2018-05-12T03:38:06.371Z,96.80
2018-05-12T03:40:07.306Z,96.90
2018-05-12T03:42:08.699Z,96.80
2018-05-12T03:44:09.647Z,97.10
2018-05-12T03:46:10.626Z,96.80
2018-05-12T03:48:12.331Z,97.40
2018-05-12T03:50:13.285Z,97.30
2018-05-12T03:52:14.253Z,97.40
2018-05-12T03:54:15.198Z,97.20
2018-05-12T03:56:17.118Z,96.80
2018-05-12T03:58:18.037Z,96.90
2018-05-12T04:00:19.707Z,96.80
2018-05-12T04:02:20.693Z,96.80
2018-05-12T04:04:34.064Z,97.10
2018-05-12T04:06:47.433Z,96.90
2018-05-12T04:09:00.786Z,96.90
2018-05-12T04:11:14.134Z,96.90
2018-05-12T04:13:15.080Z,96.90
2018-05-12T04:15:16.026Z,96.80
2018-05-12T04:17:16.967Z,96.90
2018-05-12T04:19:17.894Z,96.90
2018-05-12T04:21:18.820Z,96.90
2018-05-12T04:23:20.487Z,97.40
2018-05-12T04:25:22.183Z,97.90
2018-05-12T04:27:23.118Z,97.90
2018-05-12T04:29:24.054Z,97.60
2018-05-12T04:31:25.748Z,97.80
2018-05-12T04:33:26.682Z,97.20
2018-05-12T04:35:27.619Z,97.30
2018-05-12T04:37:28.575Z,97.20
2018-05-12T04:39:29.515Z,97.30
2018-05-12T04:41:30.462Z,97.50
2018-05-12T04:43:31.398Z,97.20
2018-05-12T04:45:32.348Z,97.60
2018-05-12T04:47:33.289Z,97.70
2018-05-12T04:49:34.242Z,97.70
2018-05-12T04:51:35.187Z,97.80
2018-05-12T04:53:36.874Z,97.40
2018-05-12T04:55:37.833Z,97.40
2018-05-12T04:57:38.782Z,97.60
2018-05-12T04:59:39.731Z,97.40
2018-05-12T05:01:40.678Z,97.70
2018-05-12T05:03:41.618Z,98.50
2018-05-12T05:05:42.533Z,98.00
2018-05-12T05:07:43.483Z,98.00
2018-05-12T05:09:44.417Z,97.90
2018-05-12T05:11:45.356Z,97.90
2018-05-12T05:13:46.292Z,98.00
2018-05-12T05:15:47.236Z,97.90
2018-05-12T05:17:48.182Z,98.30
2018-05-12T05:19:49.146Z,97.80
2018-05-12T05:21:50.086Z,97.80
2018-05-12T05:23:51.038Z,98.10
2018-05-12T05:25:52.001Z,98.30
2018-05-12T05:27:52.938Z,98.30
2018-05-12T05:29:53.890Z,98.20
2018-05-12T05:31:54.827Z,98.50
2018-05-12T05:33:55.748Z,97.80
2018-05-12T05:35:56.678Z,97.80
2018-05-12T05:37:58.355Z,98.00
2018-05-12T05:39:59.299Z,98.00
2018-05-12T05:42:00.278Z,97.60
2018-05-12T05:44:01.217Z,98.00
2018-05-12T05:46:02.160Z,98.00
2018-05-12T05:48:03.130Z,98.50
2018-05-12T05:50:04.064Z,97.90
2018-05-12T05:52:04.985Z,98.00
2018-05-12T05:54:05.921Z,98.00
2018-05-12T05:56:06.869Z,98.10
2018-05-12T05:58:07.810Z,98.00
2018-05-12T06:00:08.759Z,97.80
2018-05-12T06:02:09.691Z,98.00
2018-05-12T06:04:10.647Z,98.20
2018-05-12T06:06:11.567Z,98.20
2018-05-12T06:08:13.266Z,98.30
2018-05-12T06:10:14.216Z,98.30
2018-05-12T06:12:15.141Z,98.70
2018-05-12T06:14:16.079Z,98.30
2018-05-12T06:16:17.746Z,98.40
2018-05-12T06:18:18.681Z,98.40
2018-05-12T06:20:20.357Z,97.80
2018-05-12T06:22:21.302Z,97.70
2018-05-12T06:24:22.253Z,97.90
2018-05-12T06:26:23.203Z,98.20
2018-05-12T06:28:24.137Z,98.50
2018-05-12T06:30:25.074Z,98.60
2018-05-12T06:32:26.762Z,98.40
2018-05-12T06:34:27.705Z,98.40
2018-05-12T06:36:28.644Z,98.30
2018-05-12T06:38:29.566Z,97.80
2018-05-12T06:40:30.634Z,98.50
2018-05-12T06:42:31.606Z,98.30
2018-05-12T06:44:32.671Z,98.60
2018-05-12T06:46:33.602Z,98.70
2018-05-12T06:48:34.543Z,98.70
2018-05-12T06:50:35.457Z,98.80
2018-05-12T06:52:37.151Z,97.90
2018-05-12T06:54:38.089Z,97.90
2018-05-12T06:56:39.027Z,97.70
2018-05-12T06:58:39.962Z,97.30
2018-05-12T07:00:40.889Z,97.30
2018-05-12T07:02:42.577Z,95.10
2018-05-12T07:04:43.537Z,95.10
2018-05-12T07:06:44.476Z,95.80
2018-05-12T07:08:45.437Z,94.60
2018-05-12T07:10:47.315Z,90.60
2018-05-12T07:12:48.257Z,90.90
2018-05-12T07:14:49.175Z,87.40
2018-05-12T07:16:50.103Z,89.10
2018-05-12T07:18:51.775Z,77.30
2018-05-12T07:20:52.750Z,77.20
2018-05-12T07:22:53.693Z,74.30
2018-05-12T07:24:54.629Z,71.90
2018-05-12T07:26:56.302Z,72.00
2018-05-12T07:28:57.263Z,72.00
2018-05-12T07:30:58.201Z,68.70
2018-05-12T07:32:59.199Z,71.30
2018-05-12T07:35:00.155Z,71.90
2018-05-12T07:37:01.086Z,64.60
2018-05-12T07:39:02.806Z,68.60
2018-05-12T07:41:03.754Z,67.60
2018-05-12T07:43:04.705Z,67.90
2018-05-12T07:45:05.660Z,66.80
2018-05-12T07:47:06.609Z,72.10
2018-05-12T07:49:07.554Z,76.10
2018-05-12T07:51:08.542Z,78.10
2018-05-12T07:53:09.491Z,71.10
2018-05-12T07:55:10.498Z,72.40
2018-05-12T07:57:11.429Z,73.90
2018-05-12T07:59:12.390Z,76.50
2018-05-12T08:01:13.339Z,71.90
2018-05-12T08:03:15.034Z,75.20
2018-05-12T08:05:15.994Z,74.40
2018-05-12T08:07:16.978Z,67.50
2018-05-12T08:09:17.917Z,65.10
2018-05-12T08:11:18.884Z,67.30
2018-05-12T08:13:20.574Z,61.40
2018-05-12T08:15:21.522Z,62.40
2018-05-12T08:17:22.469Z,62.10
2018-05-12T08:19:23.402Z,63.70
2018-05-12T08:21:25.098Z,59.50
2018-05-12T08:23:26.062Z,59.30
2018-05-12T08:25:27.097Z,59.00
2018-05-12T08:27:28.048Z,58.60
2018-05-12T08:29:29.034Z,61.60
2018-05-12T08:31:30.069Z,60.30
2018-05-12T08:33:31.662Z,53.70
2018-05-12T08:35:33.321Z,51.80
2018-05-12T08:37:35.020Z,51.60
2018-05-12T08:39:35.960Z,51.70
2018-05-12T08:41:36.889Z,53.40
2018-05-12T08:43:37.840Z,56.80
2018-05-12T08:45:38.886Z,54.70
2018-05-12T08:47:39.826Z,55.60
2018-05-12T08:49:40.807Z,49.40
2018-05-12T08:51:41.769Z,54.40
2018-05-12T08:53:42.749Z,48.70
2018-05-12T08:55:44.434Z,48.90
2018-05-12T08:57:45.369Z,49.00
2018-05-12T08:59:46.329Z,45.40
2018-05-12T09:01:47.331Z,46.70
2018-05-12T09:03:48.277Z,46.80
2018-05-12T09:05:49.253Z,51.20
2018-05-12T09:07:50.226Z,49.20
2018-05-12T09:09:51.146Z,50.70
2018-05-12T09:11:52.097Z,49.40
2018-05-12T09:13:53.046Z,50.80
2018-05-12T09:15:53.998Z,53.00
2018-05-12T09:17:54.954Z,52.00
2018-05-12T09:19:55.951Z,50.60
2018-05-12T09:21:56.972Z,53.20
2018-05-12T09:23:58.586Z,46.10
2018-05-12T09:25:59.547Z,46.20
2018-05-12T09:28:00.550Z,45.70
2018-05-12T09:30:01.527Z,47.80
2018-05-12T09:32:02.475Z,48.70
2018-05-12T09:34:03.457Z,46.10
2018-05-12T09:36:04.402Z,44.60
2018-05-12T09:38:05.346Z,46.80
2018-05-12T09:40:06.298Z,44.10
2018-05-12T09:42:07.267Z,41.70
2018-05-12T09:44:08.199Z,40.60
2018-05-12T09:46:09.122Z,41.80
2018-05-12T09:48:10.045Z,42.70
2018-05-12T09:50:11.013Z,40.90
2018-05-12T09:52:11.983Z,43.20
2018-05-12T09:54:12.938Z,40.60
2018-05-12T09:56:13.921Z,42.30
2018-05-12T09:58:14.953Z,35.40
2018-05-12T10:00:15.907Z,39.00
2018-05-12T10:02:17.608Z,37.10
2018-05-12T10:04:18.583Z,37.30
2018-05-12T10:06:19.538Z,36.40
2018-05-12T10:08:20.543Z,36.80
2018-05-12T10:10:21.506Z,35.90
2018-05-12T10:12:22.508Z,38.10
2018-05-12T10:14:23.467Z,33.70
2018-05-12T10:16:24.414Z,35.40
2018-05-12T10:18:25.353Z,38.90
2018-05-12T10:20:26.317Z,34.90
2018-05-12T10:22:27.378Z,38.10
2018-05-12T10:24:28.345Z,35.60
2018-05-12T10:26:29.366Z,35.20
2018-05-12T10:28:30.318Z,39.40
2018-05-12T10:30:31.265Z,36.10
2018-05-12T10:32:32.226Z,35.40
2018-05-12T10:34:33.211Z,35.80
2018-05-12T10:36:34.159Z,40.80
2018-05-12T10:38:35.085Z,33.60
2018-05-12T10:40:36.790Z,33.50
2018-05-12T10:42:37.739Z,34.70
2018-05-12T10:44:38.679Z,28.20
2018-05-12T10:46:39.621Z,27.40
2018-05-12T10:48:41.324Z,30.20
2018-05-12T10:50:42.262Z,30.30
2018-05-12T10:52:43.239Z,29.50
2018-05-12T10:54:45.086Z,28.80
2018-05-12T10:56:46.681Z,29.50
2018-05-12T10:58:47.627Z,28.90
2018-05-12T11:00:49.313Z,28.40
2018-05-12T11:02:50.274Z,28.40
2018-05-12T11:04:51.225Z,28.30
2018-05-12T11:06:52.159Z,28.50
2018-05-12T11:08:53.095Z,27.70
2018-05-12T11:10:54.034Z,26.00
2018-05-12T11:12:54.984Z,25.40
2018-05-12T11:14:55.930Z,25.30
2018-05-12T11:16:56.883Z,23.70
2018-05-12T11:18:57.849Z,23.50
2018-05-12T11:20:58.798Z,25.50
2018-05-12T11:22:59.729Z,25.20
2018-05-12T11:25:00.714Z,25.00
2018-05-12T11:27:01.646Z,23.50
2018-05-12T11:29:02.654Z,23.60
2018-05-12T11:31:03.589Z,25.00
2018-05-12T11:33:04.554Z,26.60
2018-05-12T11:35:05.500Z,26.50
2018-05-12T11:37:06.455Z,27.50
2018-05-12T11:39:07.402Z,25.90
2018-05-12T11:41:08.350Z,25.90
2018-05-12T11:43:09.290Z,27.00
2018-05-12T11:45:10.239Z,26.70
2018-05-12T11:47:11.188Z,26.30
2018-05-12T11:49:12.145Z,27.70
2018-05-12T11:51:13.102Z,29.20
2018-05-12T11:53:14.050Z,28.10
2018-05-12T11:55:15.011Z,29.10
2018-05-12T11:57:16.694Z,30.90
2018-05-12T11:59:17.657Z,31.60
2018-05-12T12:01:18.605Z,29.70
2018-05-12T12:03:19.563Z,30.10
2018-05-12T12:05:20.567Z,31.00
2018-05-12T12:07:22.348Z,31.60
2018-05-12T12:09:23.315Z,31.70
2018-05-12T12:11:24.986Z,29.60
2018-05-12T12:13:25.927Z,29.50
2018-05-12T12:15:26.869Z,31.00
2018-05-12T12:17:28.557Z,29.50
2018-05-12T12:19:29.511Z,29.50
2018-05-12T12:21:30.439Z,29.50
2018-05-12T12:23:31.383Z,29.20
2018-05-12T12:25:32.341Z,30.10
2018-05-12T12:27:33.291Z,27.50
2018-05-12T12:29:34.273Z,24.80
2018-05-12T12:31:35.954Z,28.00
2018-05-12T12:33:36.899Z,27.90
2018-05-12T12:35:38.623Z,25.90
2018-05-12T12:37:40.305Z,23.20
2018-05-12T12:39:41.984Z,26.60
2018-05-12T12:41:42.959Z,26.20
2018-05-12T12:43:43.919Z,26.00
2018-05-12T12:45:44.863Z,25.70
2018-05-12T12:47:45.832Z,26.50
2018-05-12T12:49:46.770Z,27.10
2018-05-12T12:51:47.777Z,25.90
2018-05-12T12:53:48.682Z,25.60
2018-05-12T12:55:50.371Z,25.00
2018-05-12T12:57:51.298Z,25.00
2018-05-12T12:59:52.987Z,24.50
2018-05-12T13:01:53.940Z,23.70
2018-05-12T13:03:54.910Z,26.50
2018-05-12T13:05:55.846Z,26.00
2018-05-12T13:07:56.785Z,23.40
2018-05-12T13:09:57.730Z,24.80
2018-05-12T13:11:58.696Z,24.10
2018-05-12T13:13:59.640Z,23.20
2018-05-12T13:16:00.606Z,25.10
2018-05-12T13:18:01.525Z,26.60
2018-05-12T13:20:02.505Z,26.40
2018-05-12T13:22:04.199Z,26.10
2018-05-12T13:24:05.147Z,25.50
2018-05-12T13:26:06.089Z,25.00
2018-05-12T13:28:07.024Z,26.70
2018-05-12T13:30:07.967Z,26.70
2018-05-12T13:32:08.926Z,25.40
2018-05-12T13:34:09.874Z,25.40
2018-05-12T13:36:10.811Z,24.80
2018-05-12T13:38:11.736Z,24.70
2018-05-12T13:40:12.690Z,27.10
2018-05-12T13:42:14.376Z,23.70
2018-05-12T13:44:15.313Z,23.80
2018-05-12T13:46:16.250Z,25.30
2018-05-12T13:48:17.173Z,25.20
2018-05-12T13:50:18.851Z,27.30
2018-05-12T13:52:20.538Z,27.40
2018-05-12T13:54:21.483Z,26.90
2018-05-12T13:56:22.431Z,27.40
2018-05-12T13:58:23.397Z,27.50
2018-05-12T14:00:24.349Z,28.50
2018-05-12T14:02:25.328Z,27.90
2018-05-12T14:04:26.270Z,25.70
2018-05-12T14:06:27.223Z,26.10
2018-05-12T14:08:28.903Z,28.60
2018-05-12T14:10:29.854Z,28.60
2018-05-12T14:12:30.793Z,27.40
2018-05-12T14:14:32.469Z,27.60
2018-05-12T14:16:33.429Z,27.60
2018-05-12T14:18:34.389Z,28.10
2018-05-12T14:20:35.366Z,26.80
2018-05-12T14:22:36.316Z,26.80
2018-05-12T14:24:37.245Z,28.20
2018-05-12T14:26:38.188Z,28.50
2018-05-12T14:28:39.115Z,27.90
2018-05-12T14:30:40.079Z,26.90
2018-05-12T14:32:41.022Z,27.50
2018-05-12T14:34:41.991Z,29.20
2018-05-12T14:36:42.941Z,29.40
2018-05-12T14:38:44.642Z,29.80
2018-05-12T14:40:45.622Z,29.70
2018-05-12T14:42:46.763Z,29.80
2018-05-12T14:44:47.653Z,29.00
2018-05-12T14:46:49.342Z,32.10
2018-05-12T14:48:50.286Z,32.00
2018-05-12T14:50:51.962Z,32.10
2018-05-12T14:52:52.901Z,31.80
2018-05-12T14:54:53.854Z,29.60
2018-05-12T14:56:54.814Z,31.20
2018-05-12T14:58:55.762Z,33.10
2018-05-12T15:00:56.689Z,32.10
2018-05-12T15:02:57.634Z,33.60
2018-05-12T15:04:58.613Z,31.40
2018-05-12T15:06:59.557Z,32.70
2018-05-12T15:09:00.541Z,30.70
2018-05-12T15:11:02.232Z,32.20
2018-05-12T15:13:03.200Z,32.30
2018-05-12T15:15:04.148Z,32.40
2018-05-12T15:17:05.099Z,31.70
2018-05-12T15:19:06.046Z,32.70
2018-05-12T15:21:06.999Z,32.40
2018-05-12T15:23:07.938Z,31.50
2018-05-12T15:25:08.887Z,31.70
2018-05-12T15:27:09.847Z,30.70
2018-05-12T15:29:10.787Z,31.90
2018-05-12T15:31:11.787Z,30.60
2018-05-12T15:33:12.733Z,32.10
2018-05-12T15:35:13.687Z,31.60
2018-05-12T15:37:14.639Z,32.20
2018-05-12T15:39:15.582Z,31.80
2018-05-12T15:41:16.522Z,31.00
2018-05-12T15:43:17.476Z,30.40
2018-05-12T15:45:18.471Z,29.70
2018-05-12T15:47:20.203Z,32.30
2018-05-12T15:49:21.138Z,32.80
2018-05-12T15:51:22.099Z,33.70
2018-05-12T15:53:23.041Z,32.00
2018-05-12T15:55:24.108Z,34.40
2018-05-12T15:57:25.084Z,32.90
2018-05-12T15:59:25.988Z,31.80
2018-05-12T16:01:26.963Z,32.50
2018-05-12T16:03:28.679Z,32.00
2018-05-12T16:05:29.631Z,32.10
2018-05-12T16:07:30.624Z,33.20
2018-05-12T16:09:32.323Z,34.00
2018-05-12T16:11:33.260Z,33.80
2018-05-12T16:13:34.236Z,35.10
2018-05-12T16:15:35.212Z,35.80
2018-05-12T16:17:36.166Z,35.20
2018-05-12T16:19:37.163Z,34.70
2018-05-12T16:21:38.171Z,34.70
2018-05-12T16:23:39.140Z,35.00
2018-05-12T16:25:40.116Z,34.70
2018-05-12T16:27:41.058Z,35.80
2018-05-12T16:29:42.059Z,35.30
2018-05-12T16:31:43.021Z,34.40
2018-05-12T16:33:43.962Z,35.60
2018-05-12T16:35:44.933Z,35.60
2018-05-12T16:37:45.925Z,37.00
2018-05-12T16:39:47.619Z,37.00
2018-05-12T16:41:48.582Z,36.90
2018-05-12T16:43:49.551Z,34.20
2018-05-12T16:45:50.512Z,36.20
2018-05-12T16:47:51.495Z,36.10
2018-05-12T16:49:52.456Z,38.50
2018-05-12T16:51:53.443Z,38.00
2018-05-12T16:53:54.425Z,37.50
2018-05-12T16:55:55.421Z,38.80
2018-05-12T16:57:56.444Z,38.70
2018-05-12T16:59:57.402Z,38.80
2018-05-12T17:01:58.434Z,39.30
2018-05-12T17:03:59.365Z,40.20
2018-05-12T17:06:00.359Z,38.60
2018-05-12T17:08:01.330Z,38.60
2018-05-12T17:10:02.306Z,38.40
2018-05-12T17:12:03.270Z,39.70
2018-05-12T17:14:04.221Z,40.10
2018-05-12T17:16:05.300Z,39.20
2018-05-12T17:18:06.246Z,40.10
2018-05-12T17:20:07.200Z,39.30
2018-05-12T17:22:08.142Z,40.30
2018-05-12T17:24:09.121Z,40.30
2018-05-12T17:26:10.889Z,40.30
2018-05-12T17:28:11.902Z,40.30
2018-05-12T17:30:12.858Z,38.90
2018-05-12T17:32:13.835Z,40.50
2018-05-12T17:34:14.772Z,40.00
2018-05-12T17:36:15.780Z,41.20
2018-05-12T17:38:17.491Z,42.40
2018-05-12T17:40:18.454Z,42.40
2018-05-12T17:42:19.412Z,42.30
2018-05-12T17:44:20.441Z,41.60
2018-05-12T17:46:21.334Z,42.90
2018-05-12T17:48:22.280Z,41.50
2018-05-12T17:50:23.268Z,42.90
2018-05-12T17:52:24.207Z,43.20
2018-05-12T17:54:25.177Z,42.40
2018-05-12T17:56:26.170Z,44.60
2018-05-12T17:58:27.160Z,44.90
2018-05-12T18:00:28.202Z,45.60
2018-05-12T18:02:29.186Z,45.20
2018-05-12T18:04:30.131Z,46.90
2018-05-12T18:06:31.128Z,47.00
2018-05-12T18:08:32.119Z,47.70
2018-05-12T18:10:33.106Z,49.80
2018-05-12T18:12:34.074Z,49.10
2018-05-12T18:14:35.018Z,49.90
2018-05-12T18:16:35.978Z,49.00
2018-05-12T18:18:36.941Z,50.90
2018-05-12T18:20:37.975Z,49.20
2018-05-12T18:22:38.957Z,49.60
2018-05-12T18:24:39.926Z,49.70
2018-05-12T18:26:40.885Z,51.60
2018-05-12T18:28:42.615Z,50.30
2018-05-12T18:30:43.614Z,50.50
2018-05-12T18:32:44.568Z,50.40
2018-05-12T18:34:45.573Z,50.80
2018-05-12T18:36:46.514Z,50.50
2018-05-12T18:38:47.499Z,52.10
2018-05-12T18:40:48.456Z,50.60
2018-05-12T18:42:49.410Z,52.50
2018-05-12T18:44:50.370Z,53.30
2018-05-12T18:46:51.360Z,51.70
2018-05-12T18:48:53.059Z,52.50
2018-05-12T18:50:54.151Z,52.50
2018-05-12T18:52:55.101Z,51.80
2018-05-12T18:54:56.084Z,54.00
2018-05-12T18:56:57.074Z,53.10
2018-05-12T18:58:58.039Z,55.00
2018-05-12T19:00:59.010Z,55.70
2018-05-12T19:02:59.972Z,53.60
2018-05-12T19:05:00.951Z,54.60
2018-05-12T19:07:01.907Z,56.20
2018-05-12T19:09:02.878Z,55.40
2018-05-12T19:11:03.834Z,54.70
2018-05-12T19:13:05.539Z,57.20
2018-05-12T19:15:06.493Z,57.20
2018-05-12T19:17:07.493Z,56.10
2018-05-12T19:19:08.462Z,55.40
2018-05-12T19:21:09.413Z,55.70
2018-05-12T19:23:11.113Z,56.90
2018-05-12T19:25:12.048Z,56.90
2018-05-12T19:27:13.054Z,56.40
2018-05-12T19:29:14.013Z,57.40
2018-05-12T19:31:14.991Z,57.40
2018-05-12T19:33:15.949Z,57.70
2018-05-12T19:35:16.893Z,57.90
2018-05-12T19:37:17.896Z,58.60
2018-05-12T19:39:18.936Z,59.20
2018-05-12T19:41:19.810Z,60.40
2018-05-12T19:43:20.799Z,61.10
2018-05-12T19:45:21.757Z,61.20
2018-05-12T19:47:22.726Z,62.00
2018-05-12T19:49:23.662Z,62.00
2018-05-12T19:51:24.602Z,62.90
2018-05-12T19:53:25.587Z,62.70
2018-05-12T19:55:26.563Z,63.10
2018-05-12T19:57:27.530Z,63.40
2018-05-12T19:59:29.210Z,63.50
2018-05-12T20:01:30.162Z,63.50
2018-05-12T20:03:31.105Z,64.70
2018-05-12T20:05:32.033Z,65.50
2018-05-12T20:07:32.977Z,66.70
2018-05-12T20:09:33.922Z,67.10
2018-05-12T20:11:35.655Z,67.40
2018-05-12T20:13:36.615Z,67.40
2018-05-12T20:15:37.549Z,66.60
2018-05-12T20:17:38.486Z,69.00
2018-05-12T20:19:39.438Z,68.10
2018-05-12T20:21:40.390Z,68.20
2018-05-12T20:23:41.327Z,69.00
2018-05-12T20:25:42.346Z,69.20
2018-05-12T20:27:43.214Z,69.40
2018-05-12T20:29:44.166Z,69.80
2018-05-12T20:31:45.133Z,71.30
2018-05-12T20:33:46.834Z,71.90
2018-05-12T20:35:47.803Z,71.90
2018-05-12T20:37:48.771Z,70.60
2018-05-12T20:39:49.733Z,71.40
2018-05-12T20:41:51.456Z,71.80
2018-05-12T20:43:52.417Z,71.80
2018-05-12T20:45:53.389Z,73.70
2018-05-12T20:47:55.077Z,73.50
2018-05-12T20:49:56.014Z,73.50
2018-05-12T20:51:57.709Z,75.90
2018-05-12T20:53:58.679Z,76.60
2018-05-12T20:55:59.634Z,74.00
2018-05-12T20:58:00.619Z,74.00
2018-05-12T21:00:02.315Z,74.40
2018-05-12T21:02:03.336Z,74.30
2018-05-12T21:04:04.308Z,77.20
2018-05-12T21:06:05.230Z,76.30
2018-05-12T21:08:06.193Z,76.20
2018-05-12T21:10:07.187Z,76.20
2018-05-12T21:12:08.903Z,78.10
2018-05-12T21:14:09.964Z,77.70
2018-05-12T21:16:10.880Z,77.60
2018-05-12T21:18:11.842Z,77.90
2018-05-12T21:20:12.816Z,80.50
2018-05-12T21:22:13.762Z,79.80
2018-05-12T21:24:14.743Z,80.50
2018-05-12T21:26:15.710Z,80.90
2018-05-12T21:28:16.715Z,79.50
2018-05-12T21:30:17.646Z,80.60
2018-05-12T21:32:18.610Z,82.50
2018-05-12T21:34:19.557Z,81.60
2018-05-12T21:36:20.550Z,83.20
2018-05-12T21:38:21.514Z,83.00
2018-05-12T21:40:22.458Z,82.60
2018-05-12T21:42:23.432Z,83.50
2018-05-12T21:44:24.379Z,84.70
2018-05-12T21:46:25.313Z,86.60
2018-05-12T21:48:26.281Z,86.50
2018-05-12T21:50:27.216Z,86.40
2018-05-12T21:52:28.184Z,87.00
2018-05-12T21:54:29.157Z,87.00
2018-05-12T21:56:30.121Z,88.70
2018-05-12T21:58:31.099Z,88.70
2018-05-12T22:00:32.056Z,88.00
2018-05-12T22:02:33.031Z,90.10
2018-05-12T22:04:33.982Z,89.80
2018-05-12T22:06:34.923Z,89.00
2018-05-12T22:08:35.881Z,90.70
2018-05-12T22:10:36.853Z,89.60
2018-05-12T22:12:37.840Z,90.40
2018-05-12T22:14:38.790Z,89.90
2018-05-12T22:16:39.727Z,89.90
2018-05-12T22:18:41.475Z,90.30
2018-05-12T22:20:42.364Z,89.90
2018-05-12T22:22:43.336Z,90.00
2018-05-12T22:24:44.286Z,89.90
2018-05-12T22:26:45.267Z,90.10
2018-05-12T22:28:46.221Z,89.80
2018-05-12T22:30:47.950Z,91.10
2018-05-12T22:32:48.920Z,91.10
2018-05-12T22:34:49.855Z,90.60
2018-05-12T22:36:50.801Z,89.80
2018-05-12T22:38:51.778Z,90.60
2018-05-12T22:40:53.474Z,91.60
2018-05-12T22:42:54.456Z,91.60
2018-05-12T22:44:55.395Z,91.50
2018-05-12T22:46:56.362Z,91.30
2018-05-12T22:48:57.312Z,91.10
2018-05-12T22:50:58.978Z,91.70
2018-05-12T22:53:00.695Z,91.90
2018-05-12T22:55:01.680Z,91.90
2018-05-12T22:57:02.643Z,92.40
2018-05-12T22:59:04.363Z,92.00
2018-05-12T23:01:05.333Z,92.00
2018-05-12T23:03:06.331Z,92.70
2018-05-12T23:05:07.308Z,92.90
2018-05-12T23:07:08.257Z,92.60
2018-05-12T23:09:09.231Z,92.70
2018-05-12T23:11:10.938Z,92.70
2018-05-12T23:13:12.654Z,93.10
2018-05-12T23:15:14.324Z,92.80
2018-05-12T23:17:16.014Z,93.10
2018-05-12T23:19:16.994Z,93.10
2018-05-12T23:21:17.929Z,92.80
2018-05-12T23:23:18.885Z,93.30
2018-05-12T23:25:19.832Z,93.00
2018-05-12T23:27:20.792Z,92.90
2018-05-12T23:29:21.738Z,93.10
2018-05-12T23:31:22.717Z,93.20
2018-05-12T23:33:23.678Z,93.40
2018-05-12T23:35:24.622Z,93.40
2018-05-12T23:37:25.577Z,93.40
2018-05-12T23:39:26.534Z,93.90
2018-05-12T23:41:27.480Z,93.80
2018-05-12T23:43:28.503Z,93.80
2018-05-12T23:45:29.446Z,93.70
2018-05-12T23:47:30.382Z,93.80
2018-05-12T23:49:32.118Z,93.80
2018-05-12T23:51:33.124Z,93.80
2018-05-12T23:53:34.800Z,93.80
2018-05-12T23:55:35.752Z,93.80
2018-05-12T23:57:36.918Z,93.90
2018-05-12T23:59:37.867Z,93.80
